Time;durP1;ratioP1;P1;durP2;ratioP2;P2;SDS_P1;SDS_P2;PMS_P1;PMS_P2;Temp;Humidity;BMP_temperature;BMP_pressure;BME280_temperature;BME280_humidity;BME280_pressure;Samples;Min_cycle;Max_cycle;Signal;HPM_P1;HPM_P2
2022/05/25 00:02:46;;;;;;;7.53;1.70;;;;;;;16.81;76.48;101580.38;5049960;28;20550;-91
2022/05/25 00:05:16;;;;;;;10.00;2.03;;;;;;;16.73;75.90;101553.00;4996327;28;20474;-89
2022/05/25 00:07:47;;;;;;;19.83;2.00;;;;;;;16.72;76.01;101578.91;5012748;28;20444;-91
2022/05/25 00:10:36;;;;;;;7.70;2.43;;;;;;;16.76;75.94;101583.75;5012573;28;20453;-91
2022/05/25 00:13:09;;;;;;;12.17;1.70;;;;;;;16.75;75.86;101576.53;4996690;28;20455;-91
2022/05/25 00:15:58;;;;;;;11.37;2.20;;;;;;;16.65;76.11;101576.13;4997926;28;20448;-90
2022/05/25 00:18:32;;;;;;;22.93;2.57;;;;;;;16.71;76.25;101563.41;4996272;28;20452;-91
2022/05/25 00:21:30;;;;;;;16.40;2.20;;;;;;;16.61;75.34;101565.69;5012170;28;20454;-91
2022/05/25 00:24:00;;;;;;;9.77;1.70;;;;;;;16.63;75.99;101566.34;5011649;28;20542;-89
2022/05/25 00:26:38;;;;;;;11.10;2.23;;;;;;;16.61;75.79;101569.31;5012520;28;20455;-91
2022/05/25 00:29:17;;;;;;;11.23;1.73;;;;;;;16.57;76.09;101562.50;5011761;28;20447;-91
2022/05/25 00:31:59;;;;;;;17.20;2.20;;;;;;;16.55;75.85;101548.91;4989549;28;20456;-91
2022/05/25 00:34:28;;;;;;;10.00;1.10;;;;;;;16.63;76.01;101581.03;4988304;28;21049;-91
2022/05/25 00:37:05;;;;;;;11.73;1.67;;;;;;;16.55;76.02;101568.25;4966842;28;20482;-90
2022/05/25 00:39:40;;;;;;;7.67;1.87;;;;;;;16.54;76.00;101574.00;4979648;28;20440;-90
2022/05/25 00:42:08;;;;;;;18.77;2.23;;;;;;;16.42;76.45;101571.00;5010851;28;20442;-91
2022/05/25 00:44:36;;;;;;;13.60;2.07;;;;;;;16.49;75.88;101574.63;5013046;28;20494;-91
2022/05/25 00:47:10;;;;;;;11.30;1.90;;;;;;;16.48;75.65;101575.69;5032790;28;20443;-91
2022/05/25 00:49:39;;;;;;;10.63;1.80;;;;;;;16.55;75.60;101578.44;5044774;28;20461;-90
2022/05/25 00:52:28;;;;;;;8.80;1.40;;;;;;;16.42;75.89;101572.91;5065327;28;20438;-91
2022/05/25 00:55:19;;;;;;;8.50;1.57;;;;;;;16.43;75.83;101583.75;5019225;28;20512;-90
2022/05/25 00:57:48;;;;;;;8.73;2.13;;;;;;;16.38;76.04;101578.00;5022056;28;20539;-90
2022/05/25 01:00:24;;;;;;;7.60;1.40;;;;;;;16.41;76.30;101568.47;5031220;28;20458;-91
2022/05/25 01:03:07;;;;;;;15.63;1.70;;;;;;;16.27;76.54;101564.84;5033413;28;20985;-90
2022/05/25 01:06:17;;;;;;;8.27;1.50;;;;;;;16.21;76.20;101551.91;5032795;28;20542;-91
2022/05/25 01:09:05;;;;;;;10.20;1.53;;;;;;;16.37;76.47;101573.56;5044240;28;20456;-91
2022/05/25 01:12:06;;;;;;;10.17;1.47;;;;;;;16.29;76.73;101559.97;5052740;28;20442;-91
2022/05/25 01:15:06;;;;;;;6.30;1.70;;;;;;;16.31;76.46;101571.66;5021134;28;20450;-91
2022/05/25 01:17:45;;;;;;;8.07;1.97;;;;;;;16.29;76.77;101575.69;5057307;28;20492;-91
2022/05/25 01:20:24;;;;;;;12.33;1.60;;;;;;;16.31;76.70;101576.31;5032627;28;20436;-89
2022/05/25 01:23:31;;;;;;;7.87;1.40;;;;;;;16.19;77.06;101559.53;5052217;28;20500;-91
2022/05/25 01:26:39;;;;;;;11.80;1.80;;;;;;;16.27;76.83;101573.13;5028036;28;20844;-91
2022/05/25 01:33:07;;;;;;;7.00;1.10;;;;;;;16.22;77.48;101570.16;5019292;28;20435;-92
2022/05/25 01:36:13;;;;;;;6.60;1.50;;;;;;;16.20;77.33;101558.47;5008491;28;20891;-91
2022/05/25 01:38:50;;;;;;;3.53;1.20;;;;;;;16.13;77.59;101554.88;4986847;28;20512;-90
2022/05/25 01:41:27;;;;;;;6.70;1.00;;;;;;;16.20;77.33;101558.47;4993374;28;20456;-91
2022/05/25 01:44:18;;;;;;;4.60;0.87;;;;;;;16.16;77.40;101548.94;4994631;28;20480;-91
2022/05/25 01:47:04;;;;;;;8.47;1.40;;;;;;;16.28;76.75;101552.75;4992661;28;20440;-91
2022/05/25 01:49:55;;;;;;;6.93;1.60;;;;;;;16.13;77.61;101521.78;4994722;28;20444;-91
2022/05/25 01:52:32;;;;;;;6.50;1.27;;;;;;;16.04;77.63;101523.03;4979491;28;20437;-91
2022/05/25 01:55:18;;;;;;;6.73;1.00;;;;;;;16.03;77.12;101515.81;4995486;28;20490;-91
2022/05/25 01:57:56;;;;;;;9.13;1.50;;;;;;;16.06;77.40;101529.19;4983792;28;20445;-92
2022/05/25 02:00:32;;;;;;;10.37;1.30;;;;;;;16.03;77.16;101529.59;4965142;28;20437;-91
2022/05/25 02:06:10;;;;;;;8.13;1.07;;;;;;;16.05;76.76;101513.72;5009187;28;20496;-91
2022/05/25 02:09:20;;;;;;;8.97;1.10;;;;;;;16.05;77.15;101513.72;4979361;28;20449;-91
2022/05/25 02:12:19;;;;;;;11.60;1.30;;;;;;;16.06;76.93;101523.69;4981523;28;20524;-91
2022/05/25 02:15:27;;;;;;;4.50;1.00;;;;;;;16.08;76.40;101530.69;4960200;28;20442;-90
2022/05/25 02:18:11;;;;;;;7.47;1.63;;;;;;;16.00;77.05;101513.47;4987559;28;20476;-92
2022/05/25 02:20:52;;;;;;;7.00;1.20;;;;;;;16.01;77.05;101520.69;4966853;28;20436;-91
2022/05/25 02:23:48;;;;;;;6.67;0.73;;;;;;;15.83;76.71;101505.63;4963688;28;20476;-92
2022/05/25 02:26:51;;;;;;;7.60;1.20;;;;;;;15.85;76.95;101503.50;4885174;29;20452;-91
2022/05/25 02:29:26;;;;;;;13.90;1.47;;;;;;;15.97;77.14;101522.19;4917131;29;20953;-91
2022/05/25 02:32:17;;;;;;;10.83;1.53;;;;;;;16.00;77.09;101516.25;4916280;29;20515;-92
2022/05/25 02:34:59;;;;;;;9.77;1.90;;;;;;;15.86;77.44;101507.97;4902101;29;20488;-91
2022/05/25 02:37:32;;;;;;;7.30;1.23;;;;;;;15.92;77.56;101506.28;4900001;29;20524;-91
2022/05/25 02:40:01;;;;;;;7.27;1.07;;;;;;;15.83;77.94;101511.13;4910869;29;20516;-91
2022/05/25 02:42:59;;;;;;;7.77;1.50;;;;;;;15.93;77.75;101512.66;4914028;29;20448;-91
2022/05/25 02:45:43;;;;;;;6.00;1.30;;;;;;;15.86;78.13;101516.22;4971692;28;20515;-91
2022/05/25 02:48:12;;;;;;;10.13;1.23;;;;;;;15.78;78.25;101510.91;4919674;28;20494;-92
2022/05/25 02:50:43;;;;;;;5.20;1.40;;;;;;;15.72;78.92;101517.28;4955095;28;20487;-91
2022/05/25 02:53:11;;;;;;;4.13;1.00;;;;;;;15.74;78.81;101517.91;4957611;28;20442;-91
2022/05/25 02:55:58;;;;;;;6.33;1.27;;;;;;;15.79;79.06;101520.03;4977953;28;20810;-91
2022/05/25 02:58:35;;;;;;;11.87;1.83;;;;;;;15.71;79.42;101520.25;4974650;28;20478;-91
2022/05/25 03:01:05;;;;;;;3.67;1.17;;;;;;;15.75;78.43;101511.34;4963032;28;20437;-91
2022/05/25 03:03:37;;;;;;;6.00;1.23;;;;;;;15.68;78.90;101509.63;5019301;28;20482;-91
2022/05/25 03:06:16;;;;;;;6.73;1.03;;;;;;;15.76;78.78;101548.03;5038228;28;20431;-92
2022/05/25 03:08:50;;;;;;;8.77;1.80;;;;;;;15.77;78.82;101520.25;5058404;28;20526;-92
2022/05/25 03:11:18;;;;;;;8.57;1.13;;;;;;;15.71;79.11;101523.00;5050011;28;20446;-92
2022/05/25 03:13:49;;;;;;;10.67;1.90;;;;;;;15.65;79.47;101508.13;5037180;28;20941;-91
2022/05/25 03:16:22;;;;;;;8.23;1.40;;;;;;;15.70;79.60;101530.41;5054152;28;20439;-91
2022/05/25 03:18:52;;;;;;;7.87;1.57;;;;;;;15.68;79.17;101512.38;5037389;28;20442;-91
2022/05/25 03:21:22;;;;;;;8.53;1.20;;;;;;;15.70;79.71;101537.84;5021122;28;20431;-92
2022/05/25 03:23:57;;;;;;;10.57;1.80;;;;;;;15.63;79.39;101521.28;5019356;28;20904;-91
2022/05/25 03:26:39;;;;;;;5.23;1.00;;;;;;;15.58;79.73;101529.34;4961365;28;20823;-92
2022/05/25 03:29:11;;;;;;;4.50;1.47;;;;;;;15.48;79.90;101523.31;4945752;28;20465;-91
2022/05/25 03:31:48;;;;;;;9.63;1.70;;;;;;;15.58;80.16;101539.50;4946502;28;20448;-91
2022/05/25 03:34:19;;;;;;;11.47;1.37;;;;;;;15.59;80.63;101547.53;4947374;28;20437;-92
2022/05/25 03:36:54;;;;;;;5.43;1.20;;;;;;;15.60;80.20;101529.94;4976722;28;20473;-91
2022/05/25 03:39:48;;;;;;;5.80;1.20;;;;;;;15.57;80.94;101535.91;4992877;28;20445;-91
2022/05/25 03:42:28;;;;;;;5.00;1.50;;;;;;;15.50;80.95;101554.28;4977620;28;20459;-91
2022/05/25 03:44:56;;;;;;;7.43;1.37;;;;;;;15.48;81.22;101542.59;5030380;28;20476;-92
2022/05/25 03:47:53;;;;;;;4.87;1.40;;;;;;;15.51;81.11;101543.03;5054141;28;20443;-90
2022/05/25 03:50:42;;;;;;;5.17;0.90;;;;;;;15.40;81.26;101523.47;5081486;28;20443;-91
2022/05/25 03:53:14;;;;;;;5.03;1.00;;;;;;;15.50;81.32;101546.00;5069033;28;20434;-90
2022/05/25 03:55:49;;;;;;;5.47;1.43;;;;;;;15.43;81.70;101536.84;5021403;28;20446;-91
2022/05/25 03:58:18;;;;;;;7.40;1.40;;;;;;;15.40;81.80;101526.25;5047549;28;20451;-93
2022/05/25 04:00:59;;;;;;;5.60;0.97;;;;;;;15.36;82.34;101527.72;5064060;28;20458;-92
2022/05/25 04:03:28;;;;;;;8.40;2.00;;;;;;;15.26;82.42;101519.84;5049693;28;20447;-90
2022/05/25 04:06:05;;;;;;;8.13;1.20;;;;;;;15.42;82.40;101548.94;5067698;28;20439;-92
2022/05/25 04:08:37;;;;;;;8.27;2.80;;;;;;;15.38;82.39;101544.91;5069245;28;20446;-90
2022/05/25 04:11:06;;;;;;;11.37;1.50;;;;;;;15.38;82.39;101534.75;5048057;28;20452;-92
2022/05/25 04:13:34;;;;;;;6.97;1.57;;;;;;;15.37;82.40;101521.16;5033473;28;20451;-91
2022/05/25 04:16:06;;;;;;;9.23;2.07;;;;;;;15.35;82.35;101529.63;5049076;28;20520;-91
2022/05/25 04:18:58;;;;;;;13.93;1.93;;;;;;;15.44;82.14;101538.56;5053223;28;20427;-92
2022/05/25 04:21:26;;;;;;;8.90;1.63;;;;;;;15.36;82.93;101527.72;5045669;28;20456;-90
2022/05/25 04:24:12;;;;;;;13.97;2.20;;;;;;;15.18;83.04;101511.78;5032627;28;20539;-90
2022/05/25 04:26:41;;;;;;;14.73;1.60;;;;;;;15.23;83.15;101525.75;5033360;28;20447;-91
2022/05/25 04:29:12;;;;;;;6.50;1.57;;;;;;;15.23;83.22;101541.44;5033095;28;20494;-92
2022/05/25 04:31:43;;;;;;;6.33;0.93;;;;;;;15.25;83.41;101539.31;5033335;28;20447;-91
2022/05/25 04:34:13;;;;;;;5.77;1.40;;;;;;;15.14;83.77;101527.84;5042828;28;20439;-91
2022/05/25 04:36:46;;;;;;;7.83;1.57;;;;;;;15.08;83.55;101528.66;5013999;28;20443;-91
2022/05/25 04:39:15;;;;;;;7.73;1.10;;;;;;;15.13;83.49;101548.19;5051417;28;20532;-91
2022/05/25 04:41:45;;;;;;;6.70;1.30;;;;;;;15.12;84.30;101545.63;5048735;28;20456;-90
2022/05/25 04:44:21;;;;;;;8.57;1.97;;;;;;;15.12;84.17;101553.88;5049618;28;20475;-90
2022/05/25 04:46:50;;;;;;;5.40;1.03;;;;;;;15.04;84.00;101563.16;5035994;28;20837;-90
2022/05/25 04:49:28;;;;;;;12.70;1.80;;;;;;;15.09;84.17;101574.41;5036887;28;20438;-89
2022/05/25 04:52:24;;;;;;;9.57;1.60;;;;;;;15.14;84.35;101571.91;5053011;28;20450;-91
2022/05/25 04:54:52;;;;;;;6.23;1.90;;;;;;;15.16;84.29;101575.31;5052298;28;20504;-92
2022/05/25 04:57:31;;;;;;;8.87;1.40;;;;;;;15.16;84.21;101571.72;5020278;28;20446;-90
2022/05/25 05:00:19;;;;;;;11.70;1.40;;;;;;;15.17;84.18;101577.00;5047334;28;20443;-91
2022/05/25 05:03:03;;;;;;;7.37;1.13;;;;;;;15.19;83.77;101569.41;5032649;28;20800;-90
2022/05/25 05:05:32;;;;;;;13.73;2.47;;;;;;;15.13;84.05;101580.38;5057971;28;20485;-90
2022/05/25 05:08:07;;;;;;;6.93;1.50;;;;;;;15.09;84.73;101579.06;5032228;28;20484;-90
2022/05/25 05:10:37;;;;;;;4.73;1.20;;;;;;;15.06;84.77;101569.31;5049101;28;20443;-91
2022/05/25 05:13:31;;;;;;;6.90;1.27;;;;;;;15.15;84.32;101581.03;5091467;28;20533;-91
2022/05/25 05:16:06;;;;;;;8.53;1.53;;;;;;;15.08;84.84;101586.47;5035000;28;20447;-91
2022/05/25 05:18:51;;;;;;;4.33;1.60;;;;;;;14.98;84.76;101591.50;5051321;28;20428;-91
2022/05/25 05:21:32;;;;;;;7.47;1.53;;;;;;;15.02;85.17;101601.03;5035109;28;20475;-90
2022/05/25 05:24:01;;;;;;;9.63;1.10;;;;;;;14.92;84.85;101586.81;5019886;28;20525;-90
2022/05/25 05:26:41;;;;;;;15.53;1.70;;;;;;;14.99;85.33;101598.72;5052603;28;20486;-91
2022/05/25 05:29:12;;;;;;;20.30;1.50;;;;;;;14.96;84.94;101585.34;5052995;28;20451;-91
2022/05/25 05:31:52;;;;;;;4.30;1.50;;;;;;;14.87;85.52;101586.56;5057087;28;20430;-91
2022/05/25 05:34:20;;;;;;;10.27;1.80;;;;;;;14.94;85.39;101598.47;5035563;28;20452;-91
2022/05/25 05:37:02;;;;;;;7.43;1.37;;;;;;;14.87;85.49;101592.06;5019873;28;20447;-91
2022/05/25 05:39:37;;;;;;;14.07;1.40;;;;;;;14.91;85.52;101606.28;5035544;28;20451;-91
2022/05/25 05:42:12;;;;;;;7.37;1.47;;;;;;;14.95;85.48;101613.09;5035825;28;20450;-90
2022/05/25 05:45:13;;;;;;;4.70;1.83;;;;;;;15.02;85.05;101620.31;5032019;28;20476;-91
2022/05/25 05:48:19;;;;;;;12.87;1.97;;;;;;;14.96;85.05;101607.38;4999584;28;20448;-91
2022/05/25 05:51:10;;;;;;;7.10;1.30;;;;;;;14.99;85.60;101611.63;5040201;28;20430;-90
2022/05/25 05:53:41;;;;;;;8.83;1.13;;;;;;;15.00;85.13;101621.59;5037846;28;20523;-91
2022/05/25 05:56:18;;;;;;;16.17;3.23;;;;;;;15.00;85.38;101625.19;5019358;28;20443;-91
2022/05/25 05:58:57;;;;;;;8.67;1.33;;;;;;;15.02;85.36;101642.34;5004596;28;20522;-91
2022/05/25 06:01:45;;;;;;;8.20;1.50;;;;;;;14.96;85.75;101626.66;5003121;28;20455;-90
2022/05/25 06:04:54;;;;;;;10.77;2.40;;;;;;;15.07;85.52;101644.50;5028916;28;20803;-90
2022/05/25 06:07:34;;;;;;;7.57;2.00;;;;;;;14.97;85.67;101633.84;5038680;28;20434;-91
2022/05/25 06:10:03;;;;;;;7.73;1.77;;;;;;;15.06;85.55;101645.56;5021861;28;20454;-91
2022/05/25 06:12:36;;;;;;;5.60;1.40;;;;;;;15.11;85.74;101643.06;5021786;28;20956;-90
2022/05/25 06:21:19;;;;;;;7.77;1.13;;;;;;;15.24;85.02;101658.81;5051984;28;20450;-92
2022/05/25 06:24:00;;;;;;;6.33;1.63;;;;;;;15.25;84.91;101666.00;5043496;28;20491;-91
2022/05/25 06:26:44;;;;;;;9.60;2.10;;;;;;;15.30;84.41;101675.38;5014290;28;21040;-91
2022/05/25 06:29:23;;;;;;;18.13;2.07;;;;;;;15.37;84.35;101668.03;5015637;28;20829;-91
2022/05/25 06:32:00;;;;;;;6.73;1.27;;;;;;;15.42;84.11;101659.13;5015185;28;20489;-91
2022/05/25 06:34:31;;;;;;;8.60;1.40;;;;;;;15.39;83.85;101662.31;5039661;28;20462;-90
2022/05/25 06:37:03;;;;;;;10.03;1.93;;;;;;;15.37;83.84;101659.75;5032097;28;20447;-89
2022/05/25 06:39:36;;;;;;;5.57;1.13;;;;;;;15.43;82.97;101660.81;5032833;28;20484;-89
2022/05/25 06:42:07;;;;;;;7.93;1.63;;;;;;;15.44;83.62;101659.78;5017763;28;20450;-88
2022/05/25 06:44:58;;;;;;;6.87;1.37;;;;;;;15.53;82.99;101666.84;5017349;28;20550;-90
2022/05/25 06:47:46;;;;;;;8.23;1.17;;;;;;;15.52;82.86;101673.41;5035081;28;20501;-89
2022/05/25 06:50:14;;;;;;;7.83;1.97;;;;;;;15.58;82.90;101678.13;5017456;28;20451;-89
2022/05/25 06:52:42;;;;;;;10.73;1.67;;;;;;;15.53;82.60;101686.13;5007243;28;20479;-89
2022/05/25 06:55:11;;;;;;;5.90;1.90;;;;;;;15.59;82.48;101678.97;5005426;28;20463;-90
2022/05/25 06:57:54;;;;;;;8.97;1.80;;;;;;;15.62;82.26;101693.19;5033831;28;20536;-90
2022/05/25 07:00:22;;;;;;;12.70;2.00;;;;;;;15.58;82.59;101678.13;5015991;28;20452;-89
2022/05/25 07:02:51;;;;;;;7.70;1.60;;;;;;;15.70;82.08;101693.03;5033751;28;20458;-90
2022/05/25 07:05:19;;;;;;;6.63;1.67;;;;;;;15.74;82.02;101693.47;5015406;28;20513;-89
2022/05/25 07:07:48;;;;;;;12.73;1.47;;;;;;;15.82;81.59;101702.41;5001580;28;20459;-90
2022/05/25 07:10:18;;;;;;;10.43;1.50;;;;;;;15.83;81.76;101690.31;5018242;28;20498;-90
2022/05/25 07:13:06;;;;;;;6.67;0.97;;;;;;;15.98;81.08;101700.34;5033992;28;20588;-90
2022/05/25 07:15:35;;;;;;;9.80;1.43;;;;;;;15.92;80.43;101693.75;5013503;28;20445;-89
2022/05/25 07:18:11;;;;;;;14.73;1.73;;;;;;;15.98;80.09;101683.78;5017975;28;20546;-89
2022/05/25 07:20:39;;;;;;;8.60;1.80;;;;;;;16.07;79.94;101699.97;5050086;28;20501;-89
2022/05/25 07:23:09;;;;;;;8.07;2.07;;;;;;;16.04;79.34;101699.53;5010128;28;20448;-89
2022/05/25 07:25:37;;;;;;;8.67;1.70;;;;;;;16.17;79.74;101705.94;5028566;28;20486;-90
2022/05/25 07:28:05;;;;;;;8.93;1.77;;;;;;;16.17;79.94;101705.06;5016362;28;20444;-90
2022/05/25 07:30:33;;;;;;;6.80;1.50;;;;;;;16.29;78.93;101710.88;4992005;28;20444;-90
2022/05/25 07:33:01;;;;;;;7.37;1.17;;;;;;;16.36;78.88;101715.31;5020082;28;20458;-88
2022/05/25 07:35:30;;;;;;;5.80;1.30;;;;;;;16.43;78.68;101707.06;5032265;28;20483;-88
2022/05/25 07:37:58;;;;;;;6.93;1.17;;;;;;;16.50;77.83;101699.66;5023587;28;20475;-88
2022/05/25 07:40:50;;;;;;;2.33;1.20;;;;;;;16.62;77.99;101717.28;5052261;28;20450;-87
2022/05/25 07:43:19;;;;;;;12.43;1.83;;;;;;;16.73;77.57;101710.34;5049967;28;20434;-87
2022/05/25 07:45:49;;;;;;;14.00;1.60;;;;;;;16.80;77.20;101716.72;5035012;28;20532;-87
2022/05/25 07:48:17;;;;;;;6.70;1.73;;;;;;;16.97;76.57;101728.19;5068861;28;20526;-89
2022/05/25 07:50:48;;;;;;;12.37;1.47;;;;;;;17.01;75.96;101726.72;5011730;28;20452;-91
2022/05/25 07:54:12;;;;;;;6.37;1.10;;;;;;;17.21;75.16;101736.69;5051324;28;20438;-90
2022/05/25 07:57:04;;;;;;;5.93;2.20;;;;;;;17.25;74.11;101723.31;5052110;28;20497;-89
2022/05/25 07:59:54;;;;;;;5.50;1.33;;;;;;;17.41;73.26;101733.06;5053948;28;20801;-89
2022/05/25 08:08:20;;;;;;;17.40;1.10;;;;;;;17.66;72.26;101745.19;5039799;28;20442;-89
2022/05/25 08:11:04;;;;;;;6.93;1.37;;;;;;;17.79;72.38;101739.59;5021495;28;20821;-88
2022/05/25 08:13:36;;;;;;;10.90;2.17;;;;;;;17.98;70.90;101745.28;5035373;28;20442;-89
2022/05/25 08:16:10;;;;;;;6.13;1.10;;;;;;;18.02;69.43;101744.66;5035881;28;20434;-88
2022/05/25 08:18:39;;;;;;;5.20;1.00;;;;;;;18.08;68.54;101737.41;5035099;28;20451;-89
2022/05/25 08:21:07;;;;;;;4.67;1.30;;;;;;;18.21;68.57;101737.31;5034959;28;20427;-88
2022/05/25 08:23:35;;;;;;;5.30;1.33;;;;;;;18.29;67.84;101740.69;5034698;28;20522;-88
2022/05/25 08:26:03;;;;;;;4.33;1.20;;;;;;;18.38;67.78;101732.13;5034628;28;20481;-88
2022/05/25 08:28:31;;;;;;;4.77;0.90;;;;;;;18.49;65.91;101735.03;5034788;28;20443;-88
2022/05/25 08:30:58;;;;;;;10.00;0.93;;;;;;;18.50;65.76;101745.03;5034478;28;20944;-88
2022/05/25 08:33:27;;;;;;;5.50;1.80;;;;;;;18.57;65.92;101734.78;5018484;28;21024;-87
2022/05/25 08:36:00;;;;;;;3.80;1.00;;;;;;;18.63;64.66;101733.09;5034446;28;20861;-88
2022/05/25 08:38:30;;;;;;;5.27;1.10;;;;;;;18.57;64.17;101720.94;5035016;28;20443;-88
2022/05/25 08:40:58;;;;;;;6.50;1.20;;;;;;;18.66;63.71;101729.03;5034363;28;20492;-89
2022/05/25 08:43:54;;;;;;;24.47;2.20;;;;;;;18.76;63.02;101727.44;5018591;28;21003;-87
2022/05/25 08:46:23;;;;;;;6.00;1.40;;;;;;;18.97;62.17;101717.91;5071896;28;20489;-88
2022/05/25 08:48:53;;;;;;;7.83;1.30;;;;;;;19.20;61.96;101720.06;5051986;28;20526;-88
2022/05/25 08:51:42;;;;;;;6.53;1.03;;;;;;;19.45;60.03;101725.56;5066916;28;20458;-89
2022/05/25 08:54:11;;;;;;;4.30;0.90;;;;;;;19.68;59.71;101723.00;5052298;28;20442;-88
2022/05/25 08:56:53;;;;;;;6.23;1.13;;;;;;;19.73;59.19;101725.97;5052120;28;20439;-88
2022/05/25 08:59:46;;;;;;;3.83;0.90;;;;;;;19.85;58.79;101718.56;5052425;28;20442;-88
2022/05/25 09:02:56;;;;;;;4.07;1.20;;;;;;;19.88;58.88;101720.03;5051545;28;20439;-88
2022/05/25 09:05:34;;;;;;;4.33;1.00;;;;;;;19.89;59.36;101718.94;5079242;28;20493;-88
2022/05/25 09:08:13;;;;;;;6.77;1.17;;;;;;;19.94;59.80;101724.66;5036266;28;20443;-88
2022/05/25 09:10:46;;;;;;;4.00;0.93;;;;;;;19.94;59.50;101705.22;5051790;28;21289;-88
2022/05/25 09:13:39;;;;;;;7.17;0.93;;;;;;;20.05;59.83;101703.59;5035494;28;20446;-88
2022/05/25 09:16:17;;;;;;;10.40;1.53;;;;;;;20.19;60.20;101703.19;5051676;28;20940;-88
2022/05/25 09:19:17;;;;;;;4.27;1.20;;;;;;;20.44;58.37;101708.63;5053938;28;20496;-87
2022/05/25 09:21:50;;;;;;;5.20;1.33;;;;;;;20.56;58.05;101711.47;5051217;28;20442;-88
2022/05/25 09:24:20;;;;;;;9.60;1.57;;;;;;;20.57;57.70;101714.00;5051760;28;20517;-88
2022/05/25 09:26:49;;;;;;;7.63;1.17;;;;;;;20.58;57.44;101718.47;5051808;28;20493;-88
2022/05/25 09:29:17;;;;;;;5.03;1.20;;;;;;;20.57;57.60;101705.69;5051353;28;20851;-88
2022/05/25 09:31:57;;;;;;;3.07;1.40;;;;;;;20.65;56.65;101704.47;5050123;28;20458;-89
2022/05/25 09:35:06;;;;;;;2.93;1.00;;;;;;;20.68;56.55;101724.31;5016956;28;20941;-88
2022/05/25 09:38:09;;;;;;;7.90;1.23;;;;;;;20.71;56.05;101727.69;5045992;28;20463;-88
2022/05/25 09:40:44;;;;;;;8.20;1.53;;;;;;;20.85;56.31;101720.84;5034256;28;20442;-88
2022/05/25 09:43:17;;;;;;;2.53;0.80;;;;;;;20.98;55.57;101713.13;5018173;28;20791;-88
2022/05/25 09:45:52;;;;;;;4.40;1.03;;;;;;;21.15;55.58;101729.97;5001966;28;20478;-88
2022/05/25 09:48:54;;;;;;;3.00;1.57;;;;;;;21.21;54.57;101720.69;5033738;28;20469;-88
2022/05/25 09:51:25;;;;;;;8.50;1.13;;;;;;;21.28;54.66;101718.66;5033176;28;20441;-88
2022/05/25 09:53:56;;;;;;;3.40;0.87;;;;;;;21.41;54.38;101719.47;5034055;28;20804;-88
2022/05/25 09:56:28;;;;;;;6.53;0.90;;;;;;;21.50;53.83;101734.75;5001400;28;20496;-89
2022/05/25 09:59:03;;;;;;;3.67;0.80;;;;;;;21.51;53.25;101711.41;5034061;28;20446;-88
2022/05/25 10:01:35;;;;;;;5.27;0.90;;;;;;;21.60;53.07;101710.75;5017800;28;20496;-88
2022/05/25 10:04:04;;;;;;;5.33;1.27;;;;;;;21.69;52.19;101720.44;5021589;28;20435;-88
2022/05/25 10:06:35;;;;;;;3.80;1.13;;;;;;;21.71;51.97;101728.56;5021014;28;20470;-89
2022/05/25 10:09:16;;;;;;;2.93;1.00;;;;;;;21.84;51.96;101710.75;5037129;28;20549;-88
2022/05/25 10:11:48;;;;;;;6.50;0.90;;;;;;;21.96;51.61;101712.41;5005486;28;20442;-88
2022/05/25 10:14:17;;;;;;;2.80;0.90;;;;;;;22.09;50.70;101708.53;5053497;28;20442;-88
2022/05/25 10:16:45;;;;;;;2.70;0.60;;;;;;;22.17;50.49;101690.56;5034720;28;20438;-88
2022/05/25 10:19:14;;;;;;;3.73;0.97;;;;;;;22.28;50.02;101692.50;5034814;28;20478;-88
2022/05/25 10:21:55;;;;;;;5.67;1.20;;;;;;;22.40;50.51;101708.03;5034102;28;20505;-87
2022/05/25 10:24:49;;;;;;;7.57;1.60;;;;;;;22.48;52.02;101694.81;5033825;28;20455;-88
2022/05/25 10:27:23;;;;;;;8.40;1.50;;;;;;;22.39;52.91;101686.00;5067021;28;20850;-88
2022/05/25 10:38:29;;;;;;;9.00;1.77;;;;;;;22.62;53.87;101702.63;5047837;28;21043;-88
2022/05/25 10:44:22;;;;;;;14.33;2.80;;;;;;;22.81;54.27;101700.47;5048304;28;21008;-88
2022/05/25 10:47:00;;;;;;;8.23;1.90;;;;;;;22.98;54.94;101712.50;5017187;28;20498;-89
2022/05/25 10:49:37;;;;;;;12.90;3.00;;;;;;;23.16;54.00;101700.22;5049726;28;20530;-87
2022/05/25 10:52:51;;;;;;;4.90;1.33;;;;;;;23.36;52.80;101697.75;5034090;28;20439;-88
2022/05/25 10:55:19;;;;;;;9.17;1.63;;;;;;;23.39;51.52;101690.81;5034891;28;20432;-88
2022/05/25 10:58:09;;;;;;;8.47;1.63;;;;;;;23.40;52.19;101693.38;5033432;28;20475;-88
2022/05/25 11:00:53;;;;;;;5.90;1.53;;;;;;;23.57;51.76;101686.94;5033804;28;20459;-88
2022/05/25 11:04:10;;;;;;;5.60;1.30;;;;;;;23.63;51.71;101692.34;5034494;28;20538;-88
2022/05/25 11:06:44;;;;;;;11.40;4.17;;;;;;;23.62;51.98;101695.38;5035992;28;21003;-88
2022/05/25 11:09:32;;;;;;;9.90;4.80;;;;;;;23.79;52.29;101701.75;5036114;28;20435;-89
2022/05/25 11:12:17;;;;;;;8.00;1.60;;;;;;;23.93;51.57;101700.28;5020814;28;20434;-88
2022/05/25 11:15:28;;;;;;;13.50;2.83;;;;;;;24.01;51.75;101694.25;5019753;28;20480;-89
2022/05/25 11:18:18;;;;;;;13.30;2.87;;;;;;;24.00;51.75;101686.97;5015821;28;20439;-88
2022/05/25 11:21:04;;;;;;;13.97;2.97;;;;;;;24.16;51.19;101695.53;5018479;28;20941;-89
2022/05/25 11:23:45;;;;;;;11.43;2.30;;;;;;;24.16;50.65;101701.13;5016220;28;20439;-88
2022/05/25 11:26:55;;;;;;;8.13;1.57;;;;;;;24.14;50.71;101692.16;4999921;28;20983;-88
2022/05/25 11:29:35;;;;;;;9.23;1.60;;;;;;;24.07;50.68;101695.97;5002367;28;20581;-88
2022/05/25 11:32:33;;;;;;;11.00;1.60;;;;;;;24.18;51.28;101696.97;5015608;28;20501;-88
2022/05/25 11:35:17;;;;;;;11.93;2.03;;;;;;;24.34;50.29;101695.22;5012522;28;20448;-89
2022/05/25 11:37:53;;;;;;;9.53;1.93;;;;;;;24.51;48.50;101687.56;4982715;28;20540;-89
2022/05/25 11:40:36;;;;;;;5.97;1.27;;;;;;;24.63;47.45;101691.03;5008336;28;20441;-89
2022/05/25 11:43:21;;;;;;;7.17;1.23;;;;;;;24.66;47.31;101692.47;4992787;28;20437;-88
2022/05/25 11:46:02;;;;;;;6.17;1.03;;;;;;;24.76;46.21;101692.59;5008412;28;21057;-88
2022/05/25 11:49:05;;;;;;;6.40;1.40;;;;;;;24.95;44.98;101693.06;5004770;28;20452;-89
2022/05/25 11:51:42;;;;;;;4.00;1.00;;;;;;;25.05;44.70;101679.16;5027751;28;20444;-87
2022/05/25 11:54:26;;;;;;;2.50;1.20;;;;;;;25.18;45.66;101675.91;5049317;28;20471;-88
2022/05/25 11:57:28;;;;;;;9.93;2.00;;;;;;;25.42;45.83;101676.34;5032408;28;20459;-88
2022/05/25 12:00:26;;;;;;;15.30;3.07;;;;;;;25.70;45.67;101686.34;5032365;28;20452;-88
2022/05/25 12:03:12;;;;;;;6.13;1.60;;;;;;;25.57;44.72;101684.00;5032755;28;20448;-88
2022/05/25 12:06:16;;;;;;;7.00;1.50;;;;;;;25.33;44.26;101689.16;5033277;28;20443;-89
2022/05/25 12:08:47;;;;;;;5.47;1.40;;;;;;;25.04;45.50;101692.28;5046114;28;20490;-89
2022/05/25 12:11:23;;;;;;;7.67;1.70;;;;;;;25.13;45.20;101687.06;5032827;28;20797;-89
2022/05/25 12:14:13;;;;;;;7.83;1.77;;;;;;;25.01;44.56;101664.03;5032415;28;20925;-88
2022/05/25 12:16:43;;;;;;;4.27;1.20;;;;;;;25.01;44.41;101658.44;5045854;28;20449;-88
2022/05/25 12:19:37;;;;;;;8.70;1.80;;;;;;;25.19;45.30;101679.56;5015634;28;20443;-88
2022/05/25 12:22:11;;;;;;;7.63;1.27;;;;;;;25.19;45.17;101687.94;5015675;28;20483;-88
2022/05/25 12:24:47;;;;;;;4.53;1.27;;;;;;;25.09;44.67;101671.91;5047505;28;20443;-88
2022/05/25 12:27:17;;;;;;;10.17;1.73;;;;;;;25.24;44.32;101685.16;5030543;28;20514;-88
2022/05/25 12:29:48;;;;;;;8.00;1.20;;;;;;;25.29;44.15;101674.00;5032286;28;20453;-88
2022/05/25 12:32:18;;;;;;;5.70;1.13;;;;;;;25.50;43.76;101680.59;5047790;28;20859;-89
2022/05/25 12:34:53;;;;;;;8.70;1.40;;;;;;;25.58;43.74;101674.50;5016138;28;20457;-88
2022/05/25 12:37:24;;;;;;;7.60;1.43;;;;;;;25.57;43.76;101673.66;5031197;28;20856;-89
2022/05/25 12:39:55;;;;;;;3.90;1.20;;;;;;;25.56;44.00;101687.91;5031844;28;20956;-87
2022/05/25 12:42:23;;;;;;;7.17;1.03;;;;;;;25.55;43.67;101681.47;5047979;28;20448;-89
2022/05/25 12:50:52;;;;;;;3.93;0.90;;;;;;;25.55;43.21;101666.63;5057895;28;20431;-88
2022/05/25 12:53:54;;;;;;;3.70;1.10;;;;;;;25.66;42.12;101662.78;5031623;28;20451;-89
2022/05/25 12:56:25;;;;;;;7.83;1.27;;;;;;;25.72;42.27;101664.50;5046028;28;20443;-88
2022/05/25 12:59:34;;;;;;;5.37;1.30;;;;;;;25.80;42.34;101634.00;5032127;28;20444;-88